sensor_id;sensor_type;location;lat;lon;timestamp;temperature;humidity
15455;DHT22;21057;51.024;7.540;2023-03-01T00:01:45;0.00;99.90
15455;DHT22;21057;51.024;7.540;2023-03-01T00:04:12;0.00;99.90
15455;DHT22;21057;51.024;7.540;2023-03-01T00:06:39;-0.10;99.90
15455;DHT22;21057;51.024;7.540;2023-03-01T00:09:08;0.00;99.90
15455;DHT22;21057;51.024;7.540;2023-03-01T00:11:35;-0.10;99.90
15455;DHT22;21057;51.024;7.540;2023-03-01T00:14:02;0.00;99.90
15455;DHT22;21057;51.024;7.540;2023-03-01T00:16:43;0.10;99.90
15455;DHT22;21057;51.024;7.540;2023-03-01T00:19:12;0.10;99.90
15455;DHT22;21057;51.024;7.540;2023-03-01T00:21:41;0.10;99.90
15455;DHT22;21057;51.024;7.540;2023-03-01T00:24:10;0.20;99.90
15455;DHT22;21057;51.024;7.540;2023-03-01T00:26:37;0.20;99.90
15455;DHT22;21057;51.024;7.540;2023-03-01T00:29:03;0.30;99.90
15455;DHT22;21057;51.024;7.540;2023-03-01T00:31:31;0.40;99.90
15455;DHT22;21057;51.024;7.540;2023-03-01T00:34:01;0.30;99.90
15455;DHT22;21057;51.024;7.540;2023-03-01T00:36:32;0.30;99.90
15455;DHT22;21057;51.024;7.540;2023-03-01T00:39:00;0.20;99.90
15455;DHT22;21057;51.024;7.540;2023-03-01T00:41:30;0.30;99.90
15455;DHT22;21057;51.024;7.540;2023-03-01T00:43:57;0.20;99.90
15455;DHT22;21057;51.024;7.540;2023-03-01T00:46:25;0.10;99.90
15455;DHT22;21057;51.024;7.540;2023-03-01T00:48:52;0.10;99.90
15455;DHT22;21057;51.024;7.540;2023-03-01T00:51:27;0.00;99.90
15455;DHT22;21057;51.024;7.540;2023-03-01T00:53:56;-0.10;99.90
15455;DHT22;21057;51.024;7.540;2023-03-01T00:56:34;-0.10;99.90
15455;DHT22;21057;51.024;7.540;2023-03-01T00:59:01;0.00;99.90
15455;DHT22;21057;51.024;7.540;2023-03-01T01:01:29;0.10;99.90
15455;DHT22;21057;51.024;7.540;2023-03-01T01:03:58;0.10;99.90
15455;DHT22;21057;51.024;7.540;2023-03-01T01:06:34;-0.10;99.90
15455;DHT22;21057;51.024;7.540;2023-03-01T01:09:08;0.10;99.90
15455;DHT22;21057;51.024;7.540;2023-03-01T01:11:47;0.10;99.90
15455;DHT22;21057;51.024;7.540;2023-03-01T01:14:15;0.00;99.90
15455;DHT22;21057;51.024;7.540;2023-03-01T01:16:50;0.00;99.90
15455;DHT22;21057;51.024;7.540;2023-03-01T01:19:17;-0.10;99.90
15455;DHT22;21057;51.024;7.540;2023-03-01T01:21:44;-0.20;99.90
15455;DHT22;21057;51.024;7.540;2023-03-01T01:24:12;-0.20;99.90
15455;DHT22;21057;51.024;7.540;2023-03-01T01:26:39;-0.20;99.90
15455;DHT22;21057;51.024;7.540;2023-03-01T01:29:09;-0.10;99.90
15455;DHT22;21057;51.024;7.540;2023-03-01T01:31:38;-0.10;99.90
15455;DHT22;21057;51.024;7.540;2023-03-01T01:34:07;-0.20;99.90
15455;DHT22;21057;51.024;7.540;2023-03-01T01:36:35;-0.20;99.90
15455;DHT22;21057;51.024;7.540;2023-03-01T01:39:04;0.00;99.90
15455;DHT22;21057;51.024;7.540;2023-03-01T01:41:31;-0.10;99.90
15455;DHT22;21057;51.024;7.540;2023-03-01T01:44:17;-0.10;99.90
15455;DHT22;21057;51.024;7.540;2023-03-01T01:46:53;-0.10;99.90
15455;DHT22;21057;51.024;7.540;2023-03-01T01:49:29;-0.10;99.90
15455;DHT22;21057;51.024;7.540;2023-03-01T01:52:07;0.00;99.90
15455;DHT22;21057;51.024;7.540;2023-03-01T01:54:42;0.10;99.90
15455;DHT22;21057;51.024;7.540;2023-03-01T01:57:15;0.20;99.90
15455;DHT22;21057;51.024;7.540;2023-03-01T01:59:48;0.20;99.90
15455;DHT22;21057;51.024;7.540;2023-03-01T02:02:18;0.20;99.90
15455;DHT22;21057;51.024;7.540;2023-03-01T02:04:47;0.20;99.90
15455;DHT22;21057;51.024;7.540;2023-03-01T02:07:18;0.00;99.90
15455;DHT22;21057;51.024;7.540;2023-03-01T02:09:47;0.00;99.90
15455;DHT22;21057;51.024;7.540;2023-03-01T02:12:20;0.10;99.90
15455;DHT22;21057;51.024;7.540;2023-03-01T02:14:49;0.10;99.90
15455;DHT22;21057;51.024;7.540;2023-03-01T02:17:17;0.10;99.90
15455;DHT22;21057;51.024;7.540;2023-03-01T02:19:53;-0.10;99.90
15455;DHT22;21057;51.024;7.540;2023-03-01T02:22:23;-0.20;99.90
15455;DHT22;21057;51.024;7.540;2023-03-01T02:24:57;-0.20;99.90
15455;DHT22;21057;51.024;7.540;2023-03-01T02:27:33;-0.30;99.90
15455;DHT22;21057;51.024;7.540;2023-03-01T02:30:04;-0.50;99.90
15455;DHT22;21057;51.024;7.540;2023-03-01T02:32:32;-0.60;99.90
15455;DHT22;21057;51.024;7.540;2023-03-01T02:34:58;-0.60;99.90
15455;DHT22;21057;51.024;7.540;2023-03-01T02:37:26;-0.40;99.90
15455;DHT22;21057;51.024;7.540;2023-03-01T02:39:56;-0.50;99.90
15455;DHT22;21057;51.024;7.540;2023-03-01T02:42:38;-0.50;99.90
15455;DHT22;21057;51.024;7.540;2023-03-01T02:45:09;-0.50;99.90
15455;DHT22;21057;51.024;7.540;2023-03-01T02:47:38;-0.60;99.90
15455;DHT22;21057;51.024;7.540;2023-03-01T02:50:13;-0.50;99.90
15455;DHT22;21057;51.024;7.540;2023-03-01T02:52:52;-0.30;99.90
15455;DHT22;21057;51.024;7.540;2023-03-01T02:55:20;-0.30;99.90
15455;DHT22;21057;51.024;7.540;2023-03-01T02:57:48;-0.40;99.90
15455;DHT22;21057;51.024;7.540;2023-03-01T03:00:19;-0.40;99.90
15455;DHT22;21057;51.024;7.540;2023-03-01T03:02:49;-0.50;99.90
15455;DHT22;21057;51.024;7.540;2023-03-01T03:05:18;-0.50;99.90
15455;DHT22;21057;51.024;7.540;2023-03-01T03:07:48;-0.50;99.90
15455;DHT22;21057;51.024;7.540;2023-03-01T03:10:22;-0.50;99.90
15455;DHT22;21057;51.024;7.540;2023-03-01T03:12:49;-0.50;99.90
15455;DHT22;21057;51.024;7.540;2023-03-01T03:15:19;-0.50;99.90
15455;DHT22;21057;51.024;7.540;2023-03-01T03:17:46;-0.50;99.90
15455;DHT22;21057;51.024;7.540;2023-03-01T03:20:16;-0.50;99.90
15455;DHT22;21057;51.024;7.540;2023-03-01T03:22:44;-0.50;99.90
15455;DHT22;21057;51.024;7.540;2023-03-01T03:25:14;-0.40;99.90
15455;DHT22;21057;51.024;7.540;2023-03-01T03:27:42;-0.40;99.90
15455;DHT22;21057;51.024;7.540;2023-03-01T03:30:11;-0.30;99.90
15455;DHT22;21057;51.024;7.540;2023-03-01T03:32:45;-0.30;99.90
15455;DHT22;21057;51.024;7.540;2023-03-01T03:35:17;-0.30;99.90
15455;DHT22;21057;51.024;7.540;2023-03-01T03:37:44;-0.30;99.90
15455;DHT22;21057;51.024;7.540;2023-03-01T03:40:33;-0.50;99.90
15455;DHT22;21057;51.024;7.540;2023-03-01T03:43:01;-0.50;99.90
15455;DHT22;21057;51.024;7.540;2023-03-01T03:45:28;-0.40;99.90
15455;DHT22;21057;51.024;7.540;2023-03-01T03:47:56;-0.50;99.90
15455;DHT22;21057;51.024;7.540;2023-03-01T03:50:23;-0.60;99.90
15455;DHT22;21057;51.024;7.540;2023-03-01T03:52:50;-0.70;99.90
15455;DHT22;21057;51.024;7.540;2023-03-01T03:55:17;-0.70;99.90
15455;DHT22;21057;51.024;7.540;2023-03-01T03:57:45;-0.70;99.90
15455;DHT22;21057;51.024;7.540;2023-03-01T04:00:21;-0.60;99.90
15455;DHT22;21057;51.024;7.540;2023-03-01T04:02:50;-0.70;99.90
15455;DHT22;21057;51.024;7.540;2023-03-01T04:05:28;-0.70;99.90
15455;DHT22;21057;51.024;7.540;2023-03-01T04:07:58;-0.80;99.90
15455;DHT22;21057;51.024;7.540;2023-03-01T04:10:37;-0.80;99.90
15455;DHT22;21057;51.024;7.540;2023-03-01T04:13:06;-1.00;99.90
15455;DHT22;21057;51.024;7.540;2023-03-01T04:15:36;-1.10;99.90
15455;DHT22;21057;51.024;7.540;2023-03-01T04:18:03;-1.00;99.90
15455;DHT22;21057;51.024;7.540;2023-03-01T04:20:33;-1.10;99.90
15455;DHT22;21057;51.024;7.540;2023-03-01T04:23:03;-1.00;99.90
15455;DHT22;21057;51.024;7.540;2023-03-01T04:25:46;-0.90;99.90
15455;DHT22;21057;51.024;7.540;2023-03-01T04:28:31;-1.00;99.90
15455;DHT22;21057;51.024;7.540;2023-03-01T04:31:03;-1.00;99.90
15455;DHT22;21057;51.024;7.540;2023-03-01T04:33:51;-1.00;99.90
15455;DHT22;21057;51.024;7.540;2023-03-01T04:36:22;-0.80;99.90
15455;DHT22;21057;51.024;7.540;2023-03-01T04:38:50;-0.80;99.90
15455;DHT22;21057;51.024;7.540;2023-03-01T04:41:19;-0.90;99.90
15455;DHT22;21057;51.024;7.540;2023-03-01T04:43:46;-1.00;99.90
15455;DHT22;21057;51.024;7.540;2023-03-01T04:46:15;-1.10;99.90
15455;DHT22;21057;51.024;7.540;2023-03-01T04:48:43;-1.20;99.90
15455;DHT22;21057;51.024;7.540;2023-03-01T04:51:11;-1.30;99.90
15455;DHT22;21057;51.024;7.540;2023-03-01T04:53:40;-1.20;99.90
15455;DHT22;21057;51.024;7.540;2023-03-01T04:56:08;-1.30;99.90
15455;DHT22;21057;51.024;7.540;2023-03-01T04:58:35;-1.30;99.90
15455;DHT22;21057;51.024;7.540;2023-03-01T05:01:09;-1.20;99.90
15455;DHT22;21057;51.024;7.540;2023-03-01T05:03:40;-1.20;99.90
15455;DHT22;21057;51.024;7.540;2023-03-01T05:06:15;-1.20;99.90
15455;DHT22;21057;51.024;7.540;2023-03-01T05:08:48;-1.30;99.90
15455;DHT22;21057;51.024;7.540;2023-03-01T05:11:15;-1.30;99.90
15455;DHT22;21057;51.024;7.540;2023-03-01T05:13:48;-1.30;99.90
15455;DHT22;21057;51.024;7.540;2023-03-01T05:16:25;-1.40;99.90
15455;DHT22;21057;51.024;7.540;2023-03-01T05:18:52;-1.50;99.90
15455;DHT22;21057;51.024;7.540;2023-03-01T05:21:21;-1.50;99.90
15455;DHT22;21057;51.024;7.540;2023-03-01T05:23:56;-1.50;99.90
15455;DHT22;21057;51.024;7.540;2023-03-01T05:26:29;-1.40;99.90
15455;DHT22;21057;51.024;7.540;2023-03-01T05:28:58;-1.50;99.90
15455;DHT22;21057;51.024;7.540;2023-03-01T05:31:25;-1.50;99.90
15455;DHT22;21057;51.024;7.540;2023-03-01T05:33:52;-1.60;99.90
15455;DHT22;21057;51.024;7.540;2023-03-01T05:36:19;-1.60;99.90
15455;DHT22;21057;51.024;7.540;2023-03-01T05:38:48;-1.60;99.90
15455;DHT22;21057;51.024;7.540;2023-03-01T05:41:16;-1.60;99.90
15455;DHT22;21057;51.024;7.540;2023-03-01T05:43:43;-1.70;99.90
15455;DHT22;21057;51.024;7.540;2023-03-01T05:46:10;-1.50;99.90
15455;DHT22;21057;51.024;7.540;2023-03-01T05:48:38;-1.30;99.90
15455;DHT22;21057;51.024;7.540;2023-03-01T05:51:05;-1.10;99.90
15455;DHT22;21057;51.024;7.540;2023-03-01T05:53:32;-1.00;99.90
15455;DHT22;21057;51.024;7.540;2023-03-01T05:55:59;-1.00;99.90
15455;DHT22;21057;51.024;7.540;2023-03-01T05:58:35;-0.80;99.90
15455;DHT22;21057;51.024;7.540;2023-03-01T06:01:05;-0.70;99.90
15455;DHT22;21057;51.024;7.540;2023-03-01T06:03:33;-0.80;99.90
15455;DHT22;21057;51.024;7.540;2023-03-01T06:06:02;-0.70;99.90
15455;DHT22;21057;51.024;7.540;2023-03-01T06:08:29;-0.90;99.90
15455;DHT22;21057;51.024;7.540;2023-03-01T06:10:56;-1.10;99.90
15455;DHT22;21057;51.024;7.540;2023-03-01T06:13:23;-1.30;99.90
15455;DHT22;21057;51.024;7.540;2023-03-01T06:15:52;-1.40;99.90
15455;DHT22;21057;51.024;7.540;2023-03-01T06:18:19;-1.30;99.90
15455;DHT22;21057;51.024;7.540;2023-03-01T06:20:52;-1.20;99.90
15455;DHT22;21057;51.024;7.540;2023-03-01T06:23:19;-1.20;99.90
15455;DHT22;21057;51.024;7.540;2023-03-01T06:25:47;-1.30;99.90
15455;DHT22;21057;51.024;7.540;2023-03-01T06:28:14;-1.40;99.90
15455;DHT22;21057;51.024;7.540;2023-03-01T06:30:46;-1.40;99.90
15455;DHT22;21057;51.024;7.540;2023-03-01T06:33:14;-1.40;99.90
15455;DHT22;21057;51.024;7.540;2023-03-01T06:35:54;-1.20;99.90
15455;DHT22;21057;51.024;7.540;2023-03-01T06:38:21;-1.30;99.90
15455;DHT22;21057;51.024;7.540;2023-03-01T06:41:01;-1.30;99.90
15455;DHT22;21057;51.024;7.540;2023-03-01T06:43:27;-1.30;99.90
15455;DHT22;21057;51.024;7.540;2023-03-01T06:45:54;-1.30;99.90
15455;DHT22;21057;51.024;7.540;2023-03-01T06:48:23;-1.30;99.90
15455;DHT22;21057;51.024;7.540;2023-03-01T06:50:49;-1.10;99.90
15455;DHT22;21057;51.024;7.540;2023-03-01T06:53:16;-1.10;99.90
15455;DHT22;21057;51.024;7.540;2023-03-01T06:55:43;-1.20;99.90
15455;DHT22;21057;51.024;7.540;2023-03-01T06:58:10;-1.10;99.90
15455;DHT22;21057;51.024;7.540;2023-03-01T07:00:37;-1.10;99.90
15455;DHT22;21057;51.024;7.540;2023-03-01T07:03:06;-1.00;99.90
15455;DHT22;21057;51.024;7.540;2023-03-01T07:05:34;-1.00;99.90
15455;DHT22;21057;51.024;7.540;2023-03-01T07:08:01;-0.90;99.90
15455;DHT22;21057;51.024;7.540;2023-03-01T07:10:28;-0.80;99.90
15455;DHT22;21057;51.024;7.540;2023-03-01T07:12:56;-1.00;99.90
15455;DHT22;21057;51.024;7.540;2023-03-01T07:15:26;-1.00;99.90
15455;DHT22;21057;51.024;7.540;2023-03-01T07:17:59;-1.10;99.90
15455;DHT22;21057;51.024;7.540;2023-03-01T07:20:26;-1.20;99.90
15455;DHT22;21057;51.024;7.540;2023-03-01T07:22:55;-1.20;99.90
15455;DHT22;21057;51.024;7.540;2023-03-01T07:25:24;-1.20;99.90
15455;DHT22;21057;51.024;7.540;2023-03-01T07:27:55;-1.20;99.90
15455;DHT22;21057;51.024;7.540;2023-03-01T07:30:24;-1.20;99.90
15455;DHT22;21057;51.024;7.540;2023-03-01T07:33:01;-1.00;99.90
15455;DHT22;21057;51.024;7.540;2023-03-01T07:35:39;-0.80;99.90
15455;DHT22;21057;51.024;7.540;2023-03-01T07:38:12;-0.70;99.90
15455;DHT22;21057;51.024;7.540;2023-03-01T07:40:58;-0.50;99.90
15455;DHT22;21057;51.024;7.540;2023-03-01T07:43:25;-0.50;99.90
15455;DHT22;21057;51.024;7.540;2023-03-01T07:45:52;-0.40;99.90
15455;DHT22;21057;51.024;7.540;2023-03-01T07:48:19;-0.30;99.90
15455;DHT22;21057;51.024;7.540;2023-03-01T07:50:48;-0.30;99.90
15455;DHT22;21057;51.024;7.540;2023-03-01T07:53:16;-0.20;99.90
15455;DHT22;21057;51.024;7.540;2023-03-01T07:55:43;-0.20;99.90
15455;DHT22;21057;51.024;7.540;2023-03-01T07:58:13;-0.10;99.90
15455;DHT22;21057;51.024;7.540;2023-03-01T08:00:40;0.00;99.90
15455;DHT22;21057;51.024;7.540;2023-03-01T08:03:07;0.00;99.90
15455;DHT22;21057;51.024;7.540;2023-03-01T08:05:46;0.20;99.90
15455;DHT22;21057;51.024;7.540;2023-03-01T08:08:18;0.30;99.90
15455;DHT22;21057;51.024;7.540;2023-03-01T08:10:45;0.30;99.90
15455;DHT22;21057;51.024;7.540;2023-03-01T08:13:12;0.30;99.90
15455;DHT22;21057;51.024;7.540;2023-03-01T08:15:53;0.40;99.90
15455;DHT22;21057;51.024;7.540;2023-03-01T08:18:38;0.50;99.90
15455;DHT22;21057;51.024;7.540;2023-03-01T08:21:13;0.50;99.90
15455;DHT22;21057;51.024;7.540;2023-03-01T08:23:49;0.40;99.90
15455;DHT22;21057;51.024;7.540;2023-03-01T08:26:27;0.60;99.90
15455;DHT22;21057;51.024;7.540;2023-03-01T08:29:00;0.60;99.90
15455;DHT22;21057;51.024;7.540;2023-03-01T08:31:29;0.60;99.90
15455;DHT22;21057;51.024;7.540;2023-03-01T08:33:59;0.80;99.90
15455;DHT22;21057;51.024;7.540;2023-03-01T08:36:28;0.70;99.90
15455;DHT22;21057;51.024;7.540;2023-03-01T08:38:58;0.80;99.90
15455;DHT22;21057;51.024;7.540;2023-03-01T08:41:25;1.00;99.90
15455;DHT22;21057;51.024;7.540;2023-03-01T08:43:52;0.90;99.90
15455;DHT22;21057;51.024;7.540;2023-03-01T08:46:24;1.10;99.90
15455;DHT22;21057;51.024;7.540;2023-03-01T08:48:54;1.10;99.90
15455;DHT22;21057;51.024;7.540;2023-03-01T08:51:21;1.20;99.90
15455;DHT22;21057;51.024;7.540;2023-03-01T08:53:48;1.30;99.90
15455;DHT22;21057;51.024;7.540;2023-03-01T08:56:19;1.20;99.90
15455;DHT22;21057;51.024;7.540;2023-03-01T08:58:48;1.40;99.90
15455;DHT22;21057;51.024;7.540;2023-03-01T09:01:22;1.40;99.90
15455;DHT22;21057;51.024;7.540;2023-03-01T09:03:51;1.50;99.90
15455;DHT22;21057;51.024;7.540;2023-03-01T09:06:18;1.80;99.90
15455;DHT22;21057;51.024;7.540;2023-03-01T09:08:49;1.70;99.90
15455;DHT22;21057;51.024;7.540;2023-03-01T09:11:21;1.60;99.90
15455;DHT22;21057;51.024;7.540;2023-03-01T09:13:50;2.00;99.90
15455;DHT22;21057;51.024;7.540;2023-03-01T09:16:21;1.80;99.90
15455;DHT22;21057;51.024;7.540;2023-03-01T09:18:51;1.90;99.90
15455;DHT22;21057;51.024;7.540;2023-03-01T09:21:19;2.00;99.90
15455;DHT22;21057;51.024;7.540;2023-03-01T09:23:47;2.10;99.90
15455;DHT22;21057;51.024;7.540;2023-03-01T09:26:17;2.00;99.90
15455;DHT22;21057;51.024;7.540;2023-03-01T09:28:46;2.10;99.90
15455;DHT22;21057;51.024;7.540;2023-03-01T09:31:14;2.20;99.90
15455;DHT22;21057;51.024;7.540;2023-03-01T09:33:42;2.30;99.90
15455;DHT22;21057;51.024;7.540;2023-03-01T09:36:11;2.40;99.90
15455;DHT22;21057;51.024;7.540;2023-03-01T09:38:39;2.40;99.90
15455;DHT22;21057;51.024;7.540;2023-03-01T09:41:26;2.50;99.90
15455;DHT22;21057;51.024;7.540;2023-03-01T09:44:01;2.60;99.90
15455;DHT22;21057;51.024;7.540;2023-03-01T09:46:35;2.80;99.90
15455;DHT22;21057;51.024;7.540;2023-03-01T09:49:07;2.90;99.90
15455;DHT22;21057;51.024;7.540;2023-03-01T09:51:53;3.10;99.90
15455;DHT22;21057;51.024;7.540;2023-03-01T09:54:33;3.40;99.90
15455;DHT22;21057;51.024;7.540;2023-03-01T09:57:05;3.80;99.90
15455;DHT22;21057;51.024;7.540;2023-03-01T09:59:44;4.40;99.90
15455;DHT22;21057;51.024;7.540;2023-03-01T10:02:23;5.50;99.90
15455;DHT22;21057;51.024;7.540;2023-03-01T10:05:03;6.90;97.80
15455;DHT22;21057;51.024;7.540;2023-03-01T10:07:43;7.90;95.30
15455;DHT22;21057;51.024;7.540;2023-03-01T10:10:27;9.00;91.90
15455;DHT22;21057;51.024;7.540;2023-03-01T10:13:13;9.60;88.10
15455;DHT22;21057;51.024;7.540;2023-03-01T10:16:05;10.10;82.40
15455;DHT22;21057;51.024;7.540;2023-03-01T10:18:37;10.90;77.10
15455;DHT22;21057;51.024;7.540;2023-03-01T10:21:13;10.90;74.50
15455;DHT22;21057;51.024;7.540;2023-03-01T10:23:50;11.40;71.30
15455;DHT22;21057;51.024;7.540;2023-03-01T10:26:33;11.50;70.00
15455;DHT22;21057;51.024;7.540;2023-03-01T10:29:08;11.80;68.30
15455;DHT22;21057;51.024;7.540;2023-03-01T10:31:42;11.80;64.10
15455;DHT22;21057;51.024;7.540;2023-03-01T10:34:28;12.20;62.00
15455;DHT22;21057;51.024;7.540;2023-03-01T10:37:01;12.60;63.40
15455;DHT22;21057;51.024;7.540;2023-03-01T10:39:28;12.70;63.10
15455;DHT22;21057;51.024;7.540;2023-03-01T10:41:58;12.90;61.40
15455;DHT22;21057;51.024;7.540;2023-03-01T10:44:40;13.00;59.20
15455;DHT22;21057;51.024;7.540;2023-03-01T10:47:18;13.30;60.20
15455;DHT22;21057;51.024;7.540;2023-03-01T10:49:59;13.60;59.10
15455;DHT22;21057;51.024;7.540;2023-03-01T10:52:30;13.80;57.30
15455;DHT22;21057;51.024;7.540;2023-03-01T10:55:01;14.00;56.50
15455;DHT22;21057;51.024;7.540;2023-03-01T10:57:31;14.30;55.50
15455;DHT22;21057;51.024;7.540;2023-03-01T11:00:23;14.40;54.40
15455;DHT22;21057;51.024;7.540;2023-03-01T11:03:03;14.60;54.40
15455;DHT22;21057;51.024;7.540;2023-03-01T11:06:05;14.90;54.20
15455;DHT22;21057;51.024;7.540;2023-03-01T11:08:37;14.90;52.90
15455;DHT22;21057;51.024;7.540;2023-03-01T11:11:14;14.20;51.60
15455;DHT22;21057;51.024;7.540;2023-03-01T11:13:59;14.80;53.10
15455;DHT22;21057;51.024;7.540;2023-03-01T11:16:34;15.20;50.60
15455;DHT22;21057;51.024;7.540;2023-03-01T11:19:26;15.40;51.30
15455;DHT22;21057;51.024;7.540;2023-03-01T11:21:57;15.30;51.80
15455;DHT22;21057;51.024;7.540;2023-03-01T11:24:30;15.50;49.70
15455;DHT22;21057;51.024;7.540;2023-03-01T11:27:04;15.40;51.10
15455;DHT22;21057;51.024;7.540;2023-03-01T11:29:37;15.30;49.30
15455;DHT22;21057;51.024;7.540;2023-03-01T11:32:08;15.20;49.50
15455;DHT22;21057;51.024;7.540;2023-03-01T11:34:43;15.10;50.00
15455;DHT22;21057;51.024;7.540;2023-03-01T11:37:20;15.10;49.00
15455;DHT22;21057;51.024;7.540;2023-03-01T11:39:54;15.10;48.80
15455;DHT22;21057;51.024;7.540;2023-03-01T11:42:29;14.20;50.00
15455;DHT22;21057;51.024;7.540;2023-03-01T11:45:05;13.70;50.20
15455;DHT22;21057;51.024;7.540;2023-03-01T11:47:48;12.90;52.00
15455;DHT22;21057;51.024;7.540;2023-03-01T11:50:37;11.80;54.60
15455;DHT22;21057;51.024;7.540;2023-03-01T11:53:24;11.10;57.10
15455;DHT22;21057;51.024;7.540;2023-03-01T11:56:21;10.20;57.30
15455;DHT22;21057;51.024;7.540;2023-03-01T11:59:11;9.70;59.70
15455;DHT22;21057;51.024;7.540;2023-03-01T12:01:51;9.10;62.30
15455;DHT22;21057;51.024;7.540;2023-03-01T12:04:44;8.70;63.10
15455;DHT22;21057;51.024;7.540;2023-03-01T12:07:23;8.40;64.10
15455;DHT22;21057;51.024;7.540;2023-03-01T12:10:19;8.10;65.70
15455;DHT22;21057;51.024;7.540;2023-03-01T12:12:58;8.00;66.10
15455;DHT22;21057;51.024;7.540;2023-03-01T12:15:55;7.80;66.10
15455;DHT22;21057;51.024;7.540;2023-03-01T12:18:53;7.80;69.50
15455;DHT22;21057;51.024;7.540;2023-03-01T12:21:34;7.70;65.80
15455;DHT22;21057;51.024;7.540;2023-03-01T12:24:30;7.60;68.90
15455;DHT22;21057;51.024;7.540;2023-03-01T12:27:11;7.50;67.40
15455;DHT22;21057;51.024;7.540;2023-03-01T12:29:43;7.50;68.80
15455;DHT22;21057;51.024;7.540;2023-03-01T12:32:25;7.50;68.50
15455;DHT22;21057;51.024;7.540;2023-03-01T12:35:19;7.40;68.70
15455;DHT22;21057;51.024;7.540;2023-03-01T12:37:56;7.30;67.50
15455;DHT22;21057;51.024;7.540;2023-03-01T12:43:33;7.30;68.70
15455;DHT22;21057;51.024;7.540;2023-03-01T12:46:21;7.20;68.30
15455;DHT22;21057;51.024;7.540;2023-03-01T12:48:59;7.20;69.20
15455;DHT22;21057;51.024;7.540;2023-03-01T12:51:31;7.20;68.70
15455;DHT22;21057;51.024;7.540;2023-03-01T12:53:59;7.30;68.50
15455;DHT22;21057;51.024;7.540;2023-03-01T12:56:35;7.20;68.80
15455;DHT22;21057;51.024;7.540;2023-03-01T12:59:12;7.20;66.10
15455;DHT22;21057;51.024;7.540;2023-03-01T13:01:49;7.40;66.60
15455;DHT22;21057;51.024;7.540;2023-03-01T13:04:30;7.50;67.30
15455;DHT22;21057;51.024;7.540;2023-03-01T13:07:15;7.50;64.40
15455;DHT22;21057;51.024;7.540;2023-03-01T13:09:50;7.30;66.10
15455;DHT22;21057;51.024;7.540;2023-03-01T13:12:47;7.10;65.80
15455;DHT22;21057;51.024;7.540;2023-03-01T13:15:31;7.40;64.70
15455;DHT22;21057;51.024;7.540;2023-03-01T13:18:02;7.50;66.40
15455;DHT22;21057;51.024;7.540;2023-03-01T13:20:46;7.40;65.60
15455;DHT22;21057;51.024;7.540;2023-03-01T13:23:31;7.20;63.80
15455;DHT22;21057;51.024;7.540;2023-03-01T13:26:13;7.30;63.90
15455;DHT22;21057;51.024;7.540;2023-03-01T13:28:57;7.50;60.60
15455;DHT22;21057;51.024;7.540;2023-03-01T13:31:58;7.60;62.40
15455;DHT22;21057;51.024;7.540;2023-03-01T13:34:57;7.80;62.70
15455;DHT22;21057;51.024;7.540;2023-03-01T13:37:30;7.90;61.60
15455;DHT22;21057;51.024;7.540;2023-03-01T13:39:59;8.10;61.50
15455;DHT22;21057;51.024;7.540;2023-03-01T13:42:41;8.30;62.70
15455;DHT22;21057;51.024;7.540;2023-03-01T13:45:20;8.80;60.50
15455;DHT22;21057;51.024;7.540;2023-03-01T13:47:53;9.50;60.00
15455;DHT22;21057;51.024;7.540;2023-03-01T13:50:25;10.30;58.50
15455;DHT22;21057;51.024;7.540;2023-03-01T13:52:56;11.30;57.40
15455;DHT22;21057;51.024;7.540;2023-03-01T13:55:30;11.80;57.40
15455;DHT22;21057;51.024;7.540;2023-03-01T13:58:01;12.40;57.10
15455;DHT22;21057;51.024;7.540;2023-03-01T14:00:34;12.90;57.10
15455;DHT22;21057;51.024;7.540;2023-03-01T14:03:04;13.10;55.10
15455;DHT22;21057;51.024;7.540;2023-03-01T14:05:32;12.80;56.00
15455;DHT22;21057;51.024;7.540;2023-03-01T14:07:59;12.80;56.10
15455;DHT22;21057;51.024;7.540;2023-03-01T14:10:54;12.40;57.30
15455;DHT22;21057;51.024;7.540;2023-03-01T14:13:35;12.70;57.90
15455;DHT22;21057;51.024;7.540;2023-03-01T14:16:24;12.40;56.60
15455;DHT22;21057;51.024;7.540;2023-03-01T14:19:16;12.30;57.70
15455;DHT22;21057;51.024;7.540;2023-03-01T14:21:46;12.20;57.90
15455;DHT22;21057;51.024;7.540;2023-03-01T14:24:32;12.20;58.10
15455;DHT22;21057;51.024;7.540;2023-03-01T14:27:10;11.90;60.30
15455;DHT22;21057;51.024;7.540;2023-03-01T14:29:40;11.90;60.30
15455;DHT22;21057;51.024;7.540;2023-03-01T14:32:18;12.00;60.40
15455;DHT22;21057;51.024;7.540;2023-03-01T14:34:49;12.40;61.70
15455;DHT22;21057;51.024;7.540;2023-03-01T14:37:22;12.50;58.30
15455;DHT22;21057;51.024;7.540;2023-03-01T14:39:49;12.00;59.20
15455;DHT22;21057;51.024;7.540;2023-03-01T14:42:17;11.90;61.20
15455;DHT22;21057;51.024;7.540;2023-03-01T14:44:48;11.50;60.60
15455;DHT22;21057;51.024;7.540;2023-03-01T14:47:25;11.00;62.40
15455;DHT22;21057;51.024;7.540;2023-03-01T14:49:57;10.30;64.10
15455;DHT22;21057;51.024;7.540;2023-03-01T14:52:33;10.00;66.80
15455;DHT22;21057;51.024;7.540;2023-03-01T14:55:17;9.30;68.00
15455;DHT22;21057;51.024;7.540;2023-03-01T14:57:51;8.80;70.40
15455;DHT22;21057;51.024;7.540;2023-03-01T15:00:22;8.70;71.60
15455;DHT22;21057;51.024;7.540;2023-03-01T15:03:00;8.50;72.80
15455;DHT22;21057;51.024;7.540;2023-03-01T15:05:29;8.50;73.10
15455;DHT22;21057;51.024;7.540;2023-03-01T15:07:57;8.50;74.00
15455;DHT22;21057;51.024;7.540;2023-03-01T15:10:26;8.30;74.30
15455;DHT22;21057;51.024;7.540;2023-03-01T15:12:54;8.10;73.80
15455;DHT22;21057;51.024;7.540;2023-03-01T15:15:32;8.10;73.30
15455;DHT22;21057;51.024;7.540;2023-03-01T15:18:03;8.00;72.80
15455;DHT22;21057;51.024;7.540;2023-03-01T15:20:31;7.90;73.30
15455;DHT22;21057;51.024;7.540;2023-03-01T15:23:01;7.80;74.00
15455;DHT22;21057;51.024;7.540;2023-03-01T15:25:29;7.70;74.70
15455;DHT22;21057;51.024;7.540;2023-03-01T15:27:59;7.70;70.80
15455;DHT22;21057;51.024;7.540;2023-03-01T15:30:29;7.70;72.70
15455;DHT22;21057;51.024;7.540;2023-03-01T15:33:27;7.60;71.70
15455;DHT22;21057;51.024;7.540;2023-03-01T15:35:55;7.70;72.40
15455;DHT22;21057;51.024;7.540;2023-03-01T15:38:31;7.70;71.70
15455;DHT22;21057;51.024;7.540;2023-03-01T15:41:00;7.90;72.20
15455;DHT22;21057;51.024;7.540;2023-03-01T15:43:39;7.70;70.60
15455;DHT22;21057;51.024;7.540;2023-03-01T15:46:20;7.60;70.00
15455;DHT22;21057;51.024;7.540;2023-03-01T15:48:52;7.60;71.50
15455;DHT22;21057;51.024;7.540;2023-03-01T15:51:22;7.40;70.80
15455;DHT22;21057;51.024;7.540;2023-03-01T15:53:54;7.30;71.80
15455;DHT22;21057;51.024;7.540;2023-03-01T15:56:21;7.40;72.00
15455;DHT22;21057;51.024;7.540;2023-03-01T15:58:50;7.20;71.40
15455;DHT22;21057;51.024;7.540;2023-03-01T16:01:17;7.10;70.80
15455;DHT22;21057;51.024;7.540;2023-03-01T16:03:45;7.20;71.90
15455;DHT22;21057;51.024;7.540;2023-03-01T16:06:13;7.20;70.90
15455;DHT22;21057;51.024;7.540;2023-03-01T16:08:41;7.10;69.90
15455;DHT22;21057;51.024;7.540;2023-03-01T16:11:15;7.10;70.20
15455;DHT22;21057;51.024;7.540;2023-03-01T16:13:44;7.00;71.80
15455;DHT22;21057;51.024;7.540;2023-03-01T16:16:21;7.10;70.50
15455;DHT22;21057;51.024;7.540;2023-03-01T16:18:48;7.00;70.20